NCAR-RAP Real-Time Weather Data

Output produced by METARs form (26 May 2022  09:00 UTC)
found at http://weather.rap.ucar.edu/surface/
 
WMKK 260730Z 27006KT 200V320 9999 FEW018 32/26 Q1007 NOSIG
WMKK 260700Z VRB03KT 9999 SCT018 32/25 Q1008 NOSIG
WMKK 260630Z VRB03KT 9999 SCT018 32/24 Q1008 NOSIG
WMKK 260600Z VRB03KT 9999 SCT018 32/24 Q1009 NOSIG
WMKK 260530Z 30004KT 240V010 9999 FEW018 32/25 Q1009 NOSIG
WMKK 260500Z VRB02KT 9999 FEW018 32/25 Q1009 NOSIG
WMKK 260430Z VRB04KT 9999 FEW018 32/25 Q1010 NOSIG
WMKK 260400Z 30004KT 210V360 9999 FEW018 31/24 Q1010 NOSIG
WMKK 260330Z VRB03KT 9999 FEW018 31/25 Q1010 NOSIG
WMKK 260300Z VRB03KT 9999 FEW018 30/24 Q1010 NOSIG
WMKK 260230Z VRB03KT 9999 FEW018 29/24 Q1010 NOSIG
WMKK 260200Z 35004KT 300V060 9999 FEW018 28/23 Q1010 NOSIG
WMKK 260130Z VRB02KT 9999 FEW018 26/23 Q1010 NOSIG
WMKK 260100Z 01003KT 300V050 9000 FEW010 25/23 Q1010 NOSIG
WMKK 260030Z VRB02KT 8000 FEW010 25/23 Q1010 NOSIG
WMKK 260000Z VRB01KT 9000 FEW010 24/23 Q1010 NOSIG
WMKK 252330Z VRB01KT 9000 FEW010 24/23 Q1009 NOSIG
WMKK 252300Z VRB02KT 9000 FEW010 23/22 Q1009 NOSIG
WMKK 252230Z 03003KT 350V060 9000 FEW010 23/22 Q1009 NOSIG
WMKK 252200Z 03003KT 360V060 9000 FEW010 23/22 Q1009 NOSIG
WMKK 252130Z 00000KT 9000 FEW010 23/22 Q1008 NOSIG